createdAt,value
2019-05-28T00:00:39.025Z,17.55
2019-05-28T00:03:07.513Z,13.40
2019-05-28T00:05:36.027Z,14.25
2019-05-28T00:08:04.835Z,13.95
2019-05-28T00:10:33.284Z,17.40
2019-05-28T00:13:01.757Z,12.33
2019-05-28T00:15:30.216Z,11.18
2019-05-28T00:17:59.101Z,11.25
2019-05-28T00:20:27.637Z,14.98
2019-05-28T00:22:56.086Z,13.72
2019-05-28T00:25:27.066Z,14.68
2019-05-28T00:27:54.819Z,15.45
2019-05-28T00:30:23.495Z,15.05
2019-05-28T00:32:51.989Z,12.93
2019-05-28T00:35:20.574Z,12.53
2019-05-28T00:37:49.066Z,12.37
2019-05-28T00:40:17.579Z,10.60
2019-05-28T00:42:46.029Z,11.83
2019-05-28T00:45:15.207Z,13.87
2019-05-28T00:47:43.843Z,15.97
2019-05-28T00:50:13.025Z,14.80
2019-05-28T00:52:41.481Z,13.80
2019-05-28T00:55:10.654Z,13.97
2019-05-28T00:57:42.195Z,18.03
2019-05-28T01:00:11.374Z,12.80
2019-05-28T01:02:40.594Z,12.30
2019-05-28T01:05:10.172Z,13.33
2019-05-28T01:07:38.670Z,13.27
2019-05-28T01:10:10.398Z,14.43
2019-05-28T01:12:38.863Z,12.80
2019-05-28T01:15:09.131Z,12.63
2019-05-28T01:17:37.848Z,15.33
2019-05-28T01:20:09.812Z,16.23
2019-05-28T01:22:38.278Z,16.53
2019-05-28T01:25:07.403Z,14.83
2019-05-28T01:27:36.699Z,11.97
2019-05-28T01:30:08.458Z,16.10
2019-05-28T01:32:36.954Z,13.17
2019-05-28T01:35:07.265Z,14.57
2019-05-28T01:37:35.800Z,14.47
2019-05-28T01:40:05.980Z,15.20
2019-05-28T01:42:34.531Z,13.43
2019-05-28T01:45:03.035Z,12.33
2019-05-28T01:47:31.600Z,16.57
2019-05-28T01:50:00.097Z,16.83
2019-05-28T01:52:28.559Z,15.23
2019-05-28T01:54:56.999Z,15.43
2019-05-28T01:57:25.462Z,14.43
2019-05-28T01:59:53.939Z,12.47
2019-05-28T02:02:22.446Z,16.40
2019-05-28T02:04:51.023Z,14.10
2019-05-28T02:07:20.027Z,13.67
2019-05-28T02:09:48.699Z,17.43
2019-05-28T02:12:17.201Z,14.50
2019-05-28T02:14:45.667Z,14.13
2019-05-28T02:17:14.112Z,12.20
2019-05-28T02:19:42.645Z,16.13
2019-05-28T02:22:11.305Z,15.67
2019-05-28T02:24:39.770Z,13.47
2019-05-28T02:27:08.225Z,14.40
2019-05-28T02:29:36.663Z,13.27
2019-05-28T02:32:05.275Z,17.60
2019-05-28T02:34:33.711Z,13.00
2019-05-28T02:37:02.271Z,16.13
2019-05-28T02:39:30.694Z,13.13
2019-05-28T02:41:59.159Z,13.80
2019-05-28T02:44:27.616Z,16.77
2019-05-28T02:46:56.090Z,14.80
2019-05-28T02:49:24.531Z,14.00
2019-05-28T02:51:53.874Z,13.13
2019-05-28T02:54:22.487Z,16.37
2019-05-28T02:56:52.763Z,16.00
2019-05-28T02:59:22.758Z,15.00
2019-05-28T03:01:52.475Z,14.53
2019-05-28T03:04:23.490Z,15.43
2019-05-28T03:06:54.558Z,13.87
2019-05-28T03:09:25.311Z,13.17
2019-05-28T03:11:53.780Z,15.37
2019-05-28T03:14:22.220Z,13.47
2019-05-28T03:16:53.845Z,14.57
2019-05-28T03:19:24.129Z,17.00
2019-05-28T03:21:53.103Z,14.30
2019-05-28T03:24:22.906Z,16.37
2019-05-28T03:26:51.343Z,16.33
2019-05-28T03:29:19.815Z,15.90
2019-05-28T03:32:05.742Z,13.90
2019-05-28T03:34:18.557Z,17.23
2019-05-28T03:36:47.730Z,15.67
2019-05-28T03:39:16.871Z,17.27
2019-05-28T03:41:45.306Z,13.97
2019-05-28T03:44:13.792Z,14.00
2019-05-28T03:46:42.316Z,15.93
2019-05-28T03:49:10.878Z,17.23
2019-05-28T03:51:39.346Z,16.07
2019-05-28T03:54:07.804Z,15.87
2019-05-28T03:56:36.233Z,15.33
2019-05-28T03:59:05.049Z,15.57
2019-05-28T04:01:33.478Z,17.17
2019-05-28T04:04:01.943Z,18.57
2019-05-28T04:06:30.401Z,16.97
2019-05-28T04:08:58.875Z,17.63
2019-05-28T04:11:43.671Z,13.83
2019-05-28T04:13:57.538Z,15.67
2019-05-28T04:16:26.039Z,16.17
2019-05-28T04:18:54.480Z,17.07
2019-05-28T04:21:22.934Z,17.67
2019-05-28T04:23:51.559Z,19.80
2019-05-28T04:26:20.027Z,17.20
2019-05-28T04:28:48.461Z,17.57
2019-05-28T04:31:16.928Z,17.50
2019-05-28T04:33:45.369Z,20.10
2019-05-28T04:36:13.847Z,15.90
2019-05-28T04:38:42.332Z,18.77
2019-05-28T04:41:10.835Z,18.40
2019-05-28T04:43:39.299Z,16.17
2019-05-28T04:46:07.743Z,17.27
2019-05-28T04:48:36.213Z,17.67
2019-05-28T04:51:04.718Z,20.63
2019-05-28T04:53:33.193Z,18.40
2019-05-28T04:56:01.704Z,21.50
2019-05-28T04:58:30.174Z,17.60
2019-05-28T05:00:58.620Z,18.07
2019-05-28T05:03:28.065Z,21.33
2019-05-28T05:05:56.548Z,19.83
2019-05-28T05:08:25.018Z,17.53
2019-05-28T05:10:53.449Z,18.80
2019-05-28T05:13:21.924Z,15.93
2019-05-28T05:15:50.359Z,17.77
2019-05-28T05:18:18.886Z,17.73
2019-05-28T05:20:47.353Z,15.57
2019-05-28T05:23:15.870Z,18.77
2019-05-28T05:25:44.310Z,17.17
2019-05-28T05:28:12.770Z,17.07
2019-05-28T05:30:41.235Z,18.63
2019-05-28T05:33:19.730Z,17.43
2019-05-28T05:35:39.915Z,21.27
2019-05-28T05:38:08.457Z,20.83
2019-05-28T05:40:36.893Z,20.50
2019-05-28T05:43:05.422Z,20.03
2019-05-28T05:45:33.904Z,20.10
2019-05-28T05:48:02.367Z,20.60
2019-05-28T05:50:30.802Z,19.47
2019-05-28T05:52:59.271Z,18.17
2019-05-28T05:55:27.747Z,21.47
2019-05-28T05:57:56.180Z,18.00
2019-05-28T06:00:24.710Z,24.20
2019-05-28T06:02:53.238Z,21.23
2019-05-28T06:05:21.820Z,19.10
2019-05-28T06:07:50.323Z,17.90
2019-05-28T06:10:18.982Z,18.87
2019-05-28T06:12:47.418Z,20.07
2019-05-28T06:15:16.236Z,16.17
2019-05-28T06:17:44.757Z,17.73
2019-05-28T06:20:13.667Z,16.77
2019-05-28T06:22:42.199Z,17.67
2019-05-28T06:25:11.001Z,16.53
2019-05-28T06:27:39.526Z,17.23
2019-05-28T06:30:09.705Z,20.03
2019-05-28T06:32:38.722Z,17.37
2019-05-28T06:35:09.124Z,21.07
2019-05-28T06:37:37.703Z,17.40
2019-05-28T06:40:08.201Z,19.77
2019-05-28T06:42:39.608Z,20.97
2019-05-28T06:45:11.120Z,16.60
2019-05-28T06:47:44.653Z,17.17
2019-05-28T06:50:12.270Z,16.60
2019-05-28T06:52:41.270Z,22.80
2019-05-28T06:55:10.841Z,23.47
2019-05-28T06:57:39.367Z,18.27
2019-05-28T07:00:08.619Z,15.20
2019-05-28T07:02:37.154Z,16.67
2019-05-28T07:05:08.926Z,19.03
2019-05-28T07:07:37.399Z,18.10
2019-05-28T07:10:07.742Z,17.67
2019-05-28T07:12:36.358Z,16.57
2019-05-28T07:15:07.340Z,15.93
2019-05-28T07:17:35.866Z,16.27
2019-05-28T07:20:07.053Z,17.03
2019-05-28T07:22:35.579Z,17.03
2019-05-28T07:25:05.898Z,17.13
2019-05-28T07:27:34.335Z,24.93
2019-05-28T07:30:04.392Z,17.63
2019-05-28T07:32:32.907Z,22.40
2019-05-28T07:35:01.487Z,15.73
2019-05-28T07:37:29.987Z,17.37
2019-05-28T07:39:58.455Z,19.17
2019-05-28T07:42:32.680Z,15.17
2019-05-28T07:44:57.207Z,15.53
2019-05-28T07:47:25.751Z,18.33
2019-05-28T07:49:54.191Z,19.83
2019-05-28T07:52:22.680Z,17.93
2019-05-28T07:54:51.174Z,15.60
2019-05-28T07:57:19.633Z,14.07
2019-05-28T07:59:48.684Z,17.97
2019-05-28T08:02:17.107Z,20.43
2019-05-28T08:04:47.516Z,16.90
2019-05-28T08:07:15.839Z,18.33
2019-05-28T08:09:44.283Z,20.70
2019-05-28T08:12:12.861Z,16.00
2019-05-28T08:14:41.472Z,14.80
2019-05-28T08:17:10.010Z,16.03
2019-05-28T08:19:38.447Z,17.17
2019-05-28T08:22:07.054Z,15.53
2019-05-28T08:24:35.495Z,15.43
2019-05-28T08:27:04.053Z,14.60
2019-05-28T08:29:32.486Z,14.70
2019-05-28T08:32:00.979Z,17.03
2019-05-28T08:34:29.421Z,14.53
2019-05-28T08:37:05.803Z,14.73
2019-05-28T08:39:28.124Z,13.10
2019-05-28T08:41:56.603Z,17.07
2019-05-28T08:44:25.087Z,16.10
2019-05-28T08:46:53.598Z,19.23
2019-05-28T08:49:24.078Z,16.80
2019-05-28T08:51:52.249Z,17.73
2019-05-28T08:54:20.683Z,12.37
2019-05-28T08:56:49.161Z,16.60
2019-05-28T08:59:17.667Z,11.67
2019-05-28T09:01:46.206Z,12.70
2019-05-28T09:04:14.750Z,15.00
2019-05-28T09:06:43.294Z,14.83
2019-05-28T09:09:11.869Z,14.73
2019-05-28T09:11:40.327Z,11.40
2019-05-28T09:14:09.070Z,12.93
2019-05-28T09:16:37.903Z,12.27
2019-05-28T09:19:10.103Z,17.20
2019-05-28T09:21:36.626Z,16.43
2019-05-28T09:24:05.135Z,15.30
2019-05-28T09:26:33.671Z,14.20
2019-05-28T09:29:02.135Z,14.25
2019-05-28T09:31:30.656Z,12.20
2019-05-28T09:33:59.166Z,14.03
2019-05-28T09:36:28.130Z,15.35
2019-05-28T09:38:56.603Z,18.17
2019-05-28T09:41:25.140Z,13.40
2019-05-28T09:43:53.609Z,13.63
2019-05-28T09:46:22.059Z,13.93
2019-05-28T09:48:50.531Z,12.67
2019-05-28T09:51:18.966Z,11.57
2019-05-28T09:53:47.445Z,11.97
2019-05-28T09:56:15.888Z,12.90
2019-05-28T09:58:44.359Z,10.88
2019-05-28T10:01:13.178Z,15.63
2019-05-28T10:03:41.694Z,10.63
2019-05-28T10:06:16.929Z,11.85
2019-05-28T10:08:40.436Z,15.45
2019-05-28T10:11:08.921Z,12.75
2019-05-28T10:13:40.893Z,14.40
2019-05-28T10:16:07.617Z,12.05
2019-05-28T10:18:36.138Z,10.32
2019-05-28T10:21:17.678Z,12.20
2019-05-28T10:23:34.820Z,13.35
2019-05-28T10:26:03.422Z,14.63
2019-05-28T10:28:31.887Z,10.65
2019-05-28T10:31:00.334Z,12.60
2019-05-28T10:33:28.804Z,12.20
2019-05-28T10:35:57.239Z,12.40
2019-05-28T10:38:25.712Z,12.13
2019-05-28T10:40:54.180Z,12.10
2019-05-28T10:43:22.637Z,14.70
2019-05-28T10:45:51.185Z,12.47
2019-05-28T10:48:19.812Z,12.18
2019-05-28T10:50:48.242Z,18.32
2019-05-28T10:53:16.717Z,14.55
2019-05-28T10:55:45.182Z,12.63
2019-05-28T10:58:13.634Z,13.60
2019-05-28T11:00:42.111Z,12.58
2019-05-28T11:03:10.551Z,13.78
2019-05-28T11:05:38.984Z,13.62
2019-05-28T11:08:07.449Z,13.83
2019-05-28T11:10:35.916Z,11.05
2019-05-28T11:13:04.980Z,12.37
2019-05-28T11:15:33.890Z,14.75
2019-05-28T11:18:02.398Z,12.33
2019-05-28T11:20:31.505Z,12.47
2019-05-28T11:23:00.012Z,10.40
2019-05-28T11:25:28.478Z,14.55
2019-05-28T11:27:56.919Z,11.88
2019-05-28T11:30:25.622Z,13.55
2019-05-28T11:32:54.134Z,14.95
2019-05-28T11:35:22.976Z,10.72
2019-05-28T11:37:51.462Z,9.35
2019-05-28T11:40:20.350Z,10.75
2019-05-28T11:42:48.882Z,13.35
2019-05-28T11:45:18.700Z,10.35
2019-05-28T11:47:50.738Z,12.82
2019-05-28T11:50:17.862Z,10.90
2019-05-28T11:52:46.339Z,13.75
2019-05-28T11:55:16.117Z,13.80
2019-05-28T11:57:44.572Z,12.25
2019-05-28T12:00:14.540Z,13.68
2019-05-28T12:02:43.364Z,10.78
2019-05-28T12:05:12.800Z,11.22
2019-05-28T12:07:41.363Z,12.93
2019-05-28T12:10:10.772Z,12.33
2019-05-28T12:12:41.912Z,11.10
2019-05-28T12:15:11.632Z,12.70
2019-05-28T12:17:43.567Z,12.58
2019-05-28T12:20:13.390Z,11.90
2019-05-28T12:22:42.789Z,14.13
2019-05-28T12:25:11.957Z,13.72
2019-05-28T12:27:40.430Z,15.65
2019-05-28T12:30:10.734Z,12.20
2019-05-28T12:32:39.338Z,12.43
2019-05-28T12:35:26.410Z,13.35
2019-05-28T12:37:47.894Z,14.58
2019-05-28T12:40:10.613Z,11.08
2019-05-28T12:42:39.154Z,14.43
2019-05-28T12:45:12.087Z,9.95
2019-05-28T12:47:40.621Z,11.78
2019-05-28T12:50:20.011Z,15.20
2019-05-28T12:52:46.474Z,11.05
2019-05-28T12:55:14.061Z,11.97
2019-05-28T12:57:42.542Z,12.05
2019-05-28T13:00:12.638Z,10.32
2019-05-28T13:02:44.057Z,9.38
2019-05-28T13:05:15.329Z,10.30
2019-05-28T13:07:43.895Z,9.88
2019-05-28T13:10:13.657Z,11.68
2019-05-28T13:12:42.165Z,14.43
2019-05-28T13:15:11.130Z,11.63
2019-05-28T13:17:39.636Z,12.35
2019-05-28T13:20:08.840Z,14.00
2019-05-28T13:22:37.520Z,12.95
2019-05-28T13:25:07.715Z,10.50
2019-05-28T13:27:36.191Z,11.18
2019-05-28T13:30:13.171Z,8.48
2019-05-28T13:32:42.249Z,9.33
2019-05-28T13:35:13.275Z,10.23
2019-05-28T13:37:41.759Z,13.13
2019-05-28T13:40:12.587Z,11.15
2019-05-28T13:42:41.071Z,11.15
2019-05-28T13:45:10.047Z,11.53
2019-05-28T13:47:38.533Z,10.85
2019-05-28T13:50:08.878Z,7.85
2019-05-28T13:52:37.400Z,10.30
2019-05-28T13:55:09.956Z,11.35
2019-05-28T13:57:39.645Z,14.13
2019-05-28T14:00:10.204Z,16.93
2019-05-28T14:02:39.068Z,9.30
2019-05-28T14:05:08.714Z,11.20
2019-05-28T14:07:39.176Z,10.97
2019-05-28T14:10:08.186Z,16.13
2019-05-28T14:12:36.872Z,11.20
2019-05-28T14:15:07.772Z,12.53
2019-05-28T14:17:36.207Z,12.73
2019-05-28T14:20:06.940Z,11.80
2019-05-28T14:22:35.683Z,15.07
2019-05-28T14:25:05.285Z,12.43
2019-05-28T14:27:34.138Z,12.13
2019-05-28T14:30:02.765Z,8.77
2019-05-28T14:32:31.286Z,16.03
2019-05-28T14:34:59.736Z,10.67
2019-05-28T14:37:28.287Z,14.20
2019-05-28T14:39:56.722Z,10.23
2019-05-28T14:42:25.166Z,12.23
2019-05-28T14:44:53.635Z,12.93
2019-05-28T14:47:22.118Z,11.38
2019-05-28T14:49:50.571Z,9.88
2019-05-28T14:52:20.003Z,11.07
2019-05-28T14:54:48.437Z,9.30
2019-05-28T14:57:16.900Z,9.83
2019-05-28T14:59:45.360Z,15.43
2019-05-28T15:02:13.812Z,10.67
2019-05-28T15:04:42.321Z,11.25
2019-05-28T15:07:10.833Z,10.15
2019-05-28T15:09:39.310Z,11.13
2019-05-28T15:12:07.882Z,12.18
2019-05-28T15:14:36.363Z,11.83
2019-05-28T15:17:04.799Z,13.60
2019-05-28T15:19:33.244Z,12.13
2019-05-28T15:22:01.867Z,11.33
2019-05-28T15:24:30.447Z,12.37
2019-05-28T15:26:58.901Z,9.83
2019-05-28T15:29:27.390Z,11.90
2019-05-28T15:31:55.907Z,11.83
2019-05-28T15:34:24.486Z,13.50
2019-05-28T15:36:52.974Z,10.07
2019-05-28T15:39:38.264Z,10.10
2019-05-28T15:41:51.914Z,10.47
2019-05-28T15:44:20.450Z,13.87
2019-05-28T15:46:48.912Z,12.10
2019-05-28T15:49:17.429Z,10.00
2019-05-28T15:51:46.046Z,13.23
2019-05-28T15:54:14.486Z,11.73
2019-05-28T15:56:42.955Z,12.23
2019-05-28T15:59:12.640Z,14.33
2019-05-28T16:01:41.142Z,12.10
2019-05-28T16:04:09.666Z,11.93
2019-05-28T16:06:38.170Z,10.93
2019-05-28T16:09:08.066Z,10.47
2019-05-28T16:11:36.520Z,12.87
2019-05-28T16:14:05.235Z,11.50
2019-05-28T16:16:34.263Z,12.13
2019-05-28T16:19:02.667Z,9.23
2019-05-28T16:21:31.150Z,13.80
2019-05-28T16:23:59.646Z,14.73
2019-05-28T16:26:28.112Z,14.67
2019-05-28T16:28:56.551Z,14.10
2019-05-28T16:31:25.081Z,14.33
2019-05-28T16:33:53.543Z,15.13
2019-05-28T16:36:22.170Z,14.93
2019-05-28T16:38:50.651Z,15.97
2019-05-28T16:41:19.169Z,20.00
2019-05-28T16:43:47.634Z,16.10
2019-05-28T16:46:16.102Z,16.10
2019-05-28T16:48:44.540Z,14.33
2019-05-28T16:51:13.115Z,16.00
2019-05-28T16:53:41.671Z,14.57
2019-05-28T16:56:10.465Z,15.60
2019-05-28T16:58:38.962Z,14.20
2019-05-28T17:01:22.050Z,15.80
2019-05-28T17:03:37.616Z,12.90
2019-05-28T17:06:06.130Z,15.50
2019-05-28T17:08:34.583Z,16.17
2019-05-28T17:11:03.055Z,14.53
2019-05-28T17:13:33.277Z,14.00
2019-05-28T17:16:02.574Z,13.30
2019-05-28T17:18:31.028Z,14.97
2019-05-28T17:20:59.503Z,14.20
2019-05-28T17:23:27.955Z,13.10
2019-05-28T17:25:56.422Z,13.80
2019-05-28T17:28:24.895Z,14.83
2019-05-28T17:30:53.347Z,12.53
2019-05-28T17:33:22.061Z,14.03
2019-05-28T17:35:50.662Z,12.03
2019-05-28T17:38:19.139Z,12.37
2019-05-28T17:40:48.937Z,12.33
2019-05-28T17:43:17.655Z,10.83
2019-05-28T17:45:46.099Z,14.87
2019-05-28T17:48:14.600Z,11.93
2019-05-28T17:50:43.124Z,12.57
2019-05-28T17:53:11.677Z,11.50
2019-05-28T17:55:40.184Z,10.47
2019-05-28T17:58:08.661Z,10.77
2019-05-28T18:00:37.094Z,10.23
2019-05-28T18:03:05.559Z,10.90
2019-05-28T18:05:34.032Z,11.43
2019-05-28T18:08:02.496Z,8.53
2019-05-28T18:10:30.938Z,7.60
2019-05-28T18:12:59.390Z,8.13
2019-05-28T18:15:27.846Z,5.77
2019-05-28T18:17:56.288Z,7.43
2019-05-28T18:20:24.774Z,6.53
2019-05-28T18:22:53.212Z,8.73
2019-05-28T18:25:21.675Z,8.17
2019-05-28T18:27:50.114Z,8.50
2019-05-28T18:30:18.824Z,6.70
2019-05-28T18:32:47.243Z,7.30
2019-05-28T18:35:15.769Z,6.40
2019-05-28T18:37:44.234Z,9.33
2019-05-28T18:40:13.611Z,8.33
2019-05-28T18:42:42.091Z,8.70
2019-05-28T18:45:11.238Z,10.40
2019-05-28T18:47:40.326Z,10.57
2019-05-28T18:50:10.953Z,7.47
2019-05-28T18:52:39.463Z,9.53
2019-05-28T18:55:08.159Z,9.20
2019-05-28T18:57:36.662Z,7.10
2019-05-28T19:00:08.373Z,7.37
2019-05-28T19:02:37.078Z,7.93
2019-05-28T19:05:07.649Z,7.20
2019-05-28T19:07:36.173Z,7.63
2019-05-28T19:10:06.411Z,7.47
2019-05-28T19:12:34.879Z,5.20
2019-05-28T19:15:05.156Z,10.60
2019-05-28T19:17:33.615Z,6.43
2019-05-28T19:20:02.194Z,8.33
2019-05-28T19:22:30.722Z,12.53
2019-05-28T19:24:59.185Z,8.97
2019-05-28T19:27:27.631Z,10.03
2019-05-28T19:29:56.127Z,5.00
2019-05-28T19:32:25.552Z,6.17
2019-05-28T19:34:54.356Z,3.93
2019-05-28T19:37:23.159Z,8.07
2019-05-28T19:39:52.019Z,7.33
2019-05-28T19:42:20.446Z,5.53
2019-05-28T19:44:48.919Z,9.30
2019-05-28T19:47:17.376Z,6.57
2019-05-28T19:49:45.850Z,8.47
2019-05-28T19:52:14.286Z,9.50
2019-05-28T19:54:42.759Z,9.23
2019-05-28T19:57:11.233Z,5.47
2019-05-28T19:59:39.730Z,8.63
2019-05-28T20:02:08.236Z,6.40
2019-05-28T20:04:36.718Z,7.03
2019-05-28T20:07:05.178Z,7.67
2019-05-28T20:09:33.718Z,8.37
2019-05-28T20:12:12.388Z,6.03
2019-05-28T20:14:32.387Z,11.50
2019-05-28T20:17:00.822Z,9.23
2019-05-28T20:19:29.281Z,6.53
2019-05-28T20:21:57.725Z,8.30
2019-05-28T20:24:26.194Z,6.20
2019-05-28T20:26:55.906Z,7.53
2019-05-28T20:29:24.918Z,9.73
2019-05-28T20:31:53.373Z,4.97
2019-05-28T20:34:21.835Z,3.80
2019-05-28T20:36:50.295Z,5.97
2019-05-28T20:39:19.685Z,6.90
2019-05-28T20:41:48.118Z,7.13
2019-05-28T20:44:16.609Z,6.90
2019-05-28T20:46:45.073Z,6.03
2019-05-28T20:49:13.537Z,3.97
2019-05-28T20:51:41.986Z,6.93
2019-05-28T20:54:10.442Z,4.50
2019-05-28T20:56:38.899Z,5.10
2019-05-28T20:59:07.361Z,7.07
2019-05-28T21:01:35.786Z,5.97
2019-05-28T21:04:04.426Z,6.70
2019-05-28T21:06:32.971Z,6.93
2019-05-28T21:09:01.433Z,6.60
2019-05-28T21:11:29.867Z,7.70
2019-05-28T21:13:58.899Z,6.10
2019-05-28T21:16:27.439Z,6.33
2019-05-28T21:18:55.890Z,3.50
2019-05-28T21:21:24.335Z,5.60
2019-05-28T21:23:53.718Z,3.97
2019-05-28T21:26:22.420Z,4.23
2019-05-28T21:28:52.048Z,5.80
2019-05-28T21:31:20.659Z,3.87
2019-05-28T21:33:49.097Z,5.83
2019-05-28T21:36:17.554Z,6.80
2019-05-28T21:38:45.990Z,3.93
2019-05-28T21:41:14.466Z,7.67
2019-05-28T21:43:43.115Z,4.53
2019-05-28T21:46:11.574Z,7.20
2019-05-28T21:48:40.010Z,8.67
2019-05-28T21:51:08.474Z,4.60
2019-05-28T21:53:36.974Z,2.23
2019-05-28T21:56:05.512Z,6.20
2019-05-28T21:58:33.938Z,6.90
2019-05-28T22:01:05.472Z,7.20
2019-05-28T22:03:34.090Z,4.87
2019-05-28T22:06:03.503Z,8.87
2019-05-28T22:08:32.087Z,4.97
2019-05-28T22:11:01.737Z,6.67
2019-05-28T22:13:30.290Z,6.13
2019-05-28T22:15:58.737Z,4.77
2019-05-28T22:18:27.208Z,4.13
2019-05-28T22:20:56.694Z,4.97
2019-05-28T22:23:25.214Z,6.97
2019-05-28T22:25:54.237Z,5.27
2019-05-28T22:28:22.826Z,7.97
2019-05-28T22:30:51.267Z,4.13
2019-05-28T22:33:19.730Z,5.17
2019-05-28T22:35:48.189Z,6.40
2019-05-28T22:38:16.629Z,5.53
2019-05-28T22:40:45.225Z,8.60
2019-05-28T22:43:13.674Z,7.13
2019-05-28T22:45:43.353Z,3.37
2019-05-28T22:48:16.379Z,3.47
2019-05-28T22:50:43.275Z,5.27
2019-05-28T22:53:11.710Z,4.87
2019-05-28T22:55:40.243Z,5.60
2019-05-28T22:58:08.721Z,6.83
2019-05-28T23:00:37.347Z,4.27
2019-05-28T23:03:06.961Z,3.03
2019-05-28T23:05:36.035Z,4.53
2019-05-28T23:08:05.713Z,9.13
2019-05-28T23:10:34.383Z,5.07
2019-05-28T23:13:03.042Z,3.13
2019-05-28T23:15:31.642Z,5.07
2019-05-28T23:18:00.375Z,6.67
2019-05-28T23:20:29.209Z,9.80
2019-05-28T23:22:57.638Z,6.30
2019-05-28T23:25:26.103Z,7.13
2019-05-28T23:27:54.634Z,4.70
2019-05-28T23:30:25.467Z,5.23
2019-05-28T23:32:53.399Z,10.67
2019-05-28T23:35:21.856Z,4.00
2019-05-28T23:37:50.315Z,7.50
2019-05-28T23:40:19.307Z,7.43
2019-05-28T23:42:47.767Z,7.63
2019-05-28T23:45:17.825Z,6.30
2019-05-28T23:47:46.280Z,7.43
2019-05-28T23:50:18.002Z,7.73
2019-05-28T23:52:45.120Z,6.27
2019-05-28T23:55:13.939Z,7.70
2019-05-28T23:57:42.573Z,4.73
